sensor_id;sensor_type;location;lat;lon;timestamp;P1;durP1;ratioP1;P2;durP2;ratioP2
16127;SDS011;8168;49.036;7.690;2023-02-28T00:02:14;1.93;;;1.50;;
16127;SDS011;8168;49.036;7.690;2023-02-28T00:04:47;1.50;;;1.30;;
16127;SDS011;8168;49.036;7.690;2023-02-28T00:07:22;1.70;;;1.50;;
16127;SDS011;8168;49.036;7.690;2023-02-28T00:09:53;1.77;;;1.43;;
16127;SDS011;8168;49.036;7.690;2023-02-28T00:12:24;2.03;;;1.93;;
16127;SDS011;8168;49.036;7.690;2023-02-28T00:14:55;2.17;;;1.50;;
16127;SDS011;8168;49.036;7.690;2023-02-28T00:17:26;1.40;;;1.30;;
16127;SDS011;8168;49.036;7.690;2023-02-28T00:19:57;1.27;;;1.17;;
16127;SDS011;8168;49.036;7.690;2023-02-28T00:22:43;1.63;;;1.50;;
16127;SDS011;8168;49.036;7.690;2023-02-28T00:25:17;1.67;;;1.43;;
16127;SDS011;8168;49.036;7.690;2023-02-28T00:27:50;1.60;;;1.40;;
16127;SDS011;8168;49.036;7.690;2023-02-28T00:30:22;1.70;;;1.60;;
16127;SDS011;8168;49.036;7.690;2023-02-28T00:32:53;1.50;;;1.40;;
16127;SDS011;8168;49.036;7.690;2023-02-28T00:35:24;2.07;;;1.60;;
16127;SDS011;8168;49.036;7.690;2023-02-28T00:37:55;2.17;;;1.30;;
16127;SDS011;8168;49.036;7.690;2023-02-28T00:40:26;1.50;;;1.33;;
16127;SDS011;8168;49.036;7.690;2023-02-28T00:42:57;2.07;;;1.60;;
16127;SDS011;8168;49.036;7.690;2023-02-28T00:45:28;1.93;;;1.53;;
16127;SDS011;8168;49.036;7.690;2023-02-28T00:47:59;1.80;;;1.20;;
16127;SDS011;8168;49.036;7.690;2023-02-28T00:50:29;1.20;;;1.13;;
16127;SDS011;8168;49.036;7.690;2023-02-28T00:53:00;1.20;;;1.10;;
16127;SDS011;8168;49.036;7.690;2023-02-28T00:55:31;1.63;;;1.40;;
16127;SDS011;8168;49.036;7.690;2023-02-28T00:58:02;1.17;;;1.07;;
16127;SDS011;8168;49.036;7.690;2023-02-28T01:00:33;1.77;;;1.33;;
16127;SDS011;8168;49.036;7.690;2023-02-28T01:03:04;1.50;;;1.40;;
16127;SDS011;8168;49.036;7.690;2023-02-28T01:05:35;1.33;;;1.10;;
16127;SDS011;8168;49.036;7.690;2023-02-28T01:08:06;1.37;;;1.27;;
16127;SDS011;8168;49.036;7.690;2023-02-28T01:10:37;1.63;;;1.17;;
16127;SDS011;8168;49.036;7.690;2023-02-28T01:13:08;1.57;;;1.40;;
16127;SDS011;8168;49.036;7.690;2023-02-28T01:15:43;2.03;;;1.50;;
16127;SDS011;8168;49.036;7.690;2023-02-28T01:18:19;1.70;;;1.30;;
16127;SDS011;8168;49.036;7.690;2023-02-28T01:20:49;2.13;;;1.63;;
16127;SDS011;8168;49.036;7.690;2023-02-28T01:23:22;2.10;;;1.60;;
16127;SDS011;8168;49.036;7.690;2023-02-28T01:25:54;1.43;;;1.30;;
16127;SDS011;8168;49.036;7.690;2023-02-28T01:28:25;1.30;;;1.20;;
16127;SDS011;8168;49.036;7.690;2023-02-28T01:30:56;2.27;;;1.60;;
16127;SDS011;8168;49.036;7.690;2023-02-28T01:33:27;1.20;;;1.10;;
16127;SDS011;8168;49.036;7.690;2023-02-28T01:36:05;1.67;;;1.57;;
16127;SDS011;8168;49.036;7.690;2023-02-28T01:38:41;2.70;;;1.53;;
16127;SDS011;8168;49.036;7.690;2023-02-28T01:41:19;1.47;;;1.37;;
16127;SDS011;8168;49.036;7.690;2023-02-28T01:43:55;2.20;;;1.40;;
16127;SDS011;8168;49.036;7.690;2023-02-28T01:46:29;1.83;;;1.57;;
16127;SDS011;8168;49.036;7.690;2023-02-28T01:49:08;1.63;;;1.50;;
16127;SDS011;8168;49.036;7.690;2023-02-28T01:51:51;1.50;;;1.40;;
16127;SDS011;8168;49.036;7.690;2023-02-28T01:54:26;1.40;;;1.30;;
16127;SDS011;8168;49.036;7.690;2023-02-28T01:57:04;2.10;;;1.40;;
16127;SDS011;8168;49.036;7.690;2023-02-28T01:59:40;2.20;;;1.70;;
16127;SDS011;8168;49.036;7.690;2023-02-28T02:02:16;2.57;;;1.43;;
16127;SDS011;8168;49.036;7.690;2023-02-28T02:04:54;1.30;;;1.20;;
16127;SDS011;8168;49.036;7.690;2023-02-28T02:07:36;1.57;;;1.20;;
16127;SDS011;8168;49.036;7.690;2023-02-28T02:10:14;3.93;;;1.50;;
16127;SDS011;8168;49.036;7.690;2023-02-28T02:27:20;1.40;;;1.30;;
16127;SDS011;8168;49.036;7.690;2023-02-28T02:33:13;1.50;;;1.40;;
16127;SDS011;8168;49.036;7.690;2023-02-28T02:44:10;2.00;;;1.50;;
16127;SDS011;8168;49.036;7.690;2023-02-28T02:46:55;3.93;;;1.80;;
16127;SDS011;8168;49.036;7.690;2023-02-28T02:49:30;1.70;;;1.57;;
16127;SDS011;8168;49.036;7.690;2023-02-28T02:52:04;1.50;;;1.40;;
16127;SDS011;8168;49.036;7.690;2023-02-28T02:54:41;3.07;;;1.87;;
16127;SDS011;8168;49.036;7.690;2023-02-28T02:57:17;1.77;;;1.53;;
16127;SDS011;8168;49.036;7.690;2023-02-28T03:00:04;1.77;;;1.67;;
16127;SDS011;8168;49.036;7.690;2023-02-28T03:02:38;2.57;;;1.60;;
16127;SDS011;8168;49.036;7.690;2023-02-28T03:05:18;1.73;;;1.50;;
16127;SDS011;8168;49.036;7.690;2023-02-28T03:08:05;2.03;;;1.83;;
16127;SDS011;8168;49.036;7.690;2023-02-28T03:10:38;2.07;;;1.70;;
16127;SDS011;8168;49.036;7.690;2023-02-28T03:27:03;2.47;;;1.90;;
16127;SDS011;8168;49.036;7.690;2023-02-28T03:30:00;3.00;;;1.50;;
16127;SDS011;8168;49.036;7.690;2023-02-28T03:32:43;2.60;;;1.87;;
16127;SDS011;8168;49.036;7.690;2023-02-28T03:35:22;3.20;;;2.20;;
16127;SDS011;8168;49.036;7.690;2023-02-28T03:38:00;2.63;;;2.03;;
16127;SDS011;8168;49.036;7.690;2023-02-28T03:40:38;2.30;;;1.70;;
16127;SDS011;8168;49.036;7.690;2023-02-28T03:43:14;2.20;;;2.00;;
16127;SDS011;8168;49.036;7.690;2023-02-28T03:45:52;2.90;;;2.07;;
16127;SDS011;8168;49.036;7.690;2023-02-28T03:48:31;2.67;;;1.80;;
16127;SDS011;8168;49.036;7.690;2023-02-28T03:51:18;5.13;;;2.20;;
16127;SDS011;8168;49.036;7.690;2023-02-28T03:53:57;4.47;;;1.63;;
16127;SDS011;8168;49.036;7.690;2023-02-28T03:56:34;2.20;;;1.80;;
16127;SDS011;8168;49.036;7.690;2023-02-28T03:59:28;2.27;;;1.67;;
16127;SDS011;8168;49.036;7.690;2023-02-28T04:02:04;2.97;;;1.87;;
16127;SDS011;8168;49.036;7.690;2023-02-28T04:04:34;2.77;;;1.63;;
16127;SDS011;8168;49.036;7.690;2023-02-28T04:07:06;2.40;;;2.20;;
16127;SDS011;8168;49.036;7.690;2023-02-28T04:09:38;3.03;;;1.60;;
16127;SDS011;8168;49.036;7.690;2023-02-28T04:12:09;4.93;;;1.70;;
16127;SDS011;8168;49.036;7.690;2023-02-28T04:14:40;2.73;;;1.80;;
16127;SDS011;8168;49.036;7.690;2023-02-28T04:17:11;2.93;;;2.20;;
16127;SDS011;8168;49.036;7.690;2023-02-28T04:19:42;2.90;;;2.00;;
16127;SDS011;8168;49.036;7.690;2023-02-28T04:22:14;2.53;;;1.80;;
16127;SDS011;8168;49.036;7.690;2023-02-28T04:24:44;3.50;;;2.23;;
16127;SDS011;8168;49.036;7.690;2023-02-28T04:27:18;2.50;;;2.00;;
16127;SDS011;8168;49.036;7.690;2023-02-28T04:29:49;3.63;;;2.07;;
16127;SDS011;8168;49.036;7.690;2023-02-28T04:32:20;4.17;;;1.97;;
16127;SDS011;8168;49.036;7.690;2023-02-28T04:34:52;5.67;;;1.97;;
16127;SDS011;8168;49.036;7.690;2023-02-28T04:37:23;2.20;;;1.77;;
16127;SDS011;8168;49.036;7.690;2023-02-28T04:39:58;3.10;;;2.30;;
16127;SDS011;8168;49.036;7.690;2023-02-28T04:42:29;5.67;;;2.40;;
16127;SDS011;8168;49.036;7.690;2023-02-28T04:45:05;3.03;;;2.20;;
16127;SDS011;8168;49.036;7.690;2023-02-28T04:47:36;2.93;;;2.33;;
16127;SDS011;8168;49.036;7.690;2023-02-28T04:50:07;4.60;;;2.30;;
16127;SDS011;8168;49.036;7.690;2023-02-28T04:52:39;2.30;;;1.90;;
16127;SDS011;8168;49.036;7.690;2023-02-28T04:55:10;2.67;;;2.20;;
16127;SDS011;8168;49.036;7.690;2023-02-28T04:57:41;2.20;;;1.97;;
16127;SDS011;8168;49.036;7.690;2023-02-28T05:00:12;5.20;;;2.40;;
16127;SDS011;8168;49.036;7.690;2023-02-28T05:02:46;3.07;;;2.57;;
16127;SDS011;8168;49.036;7.690;2023-02-28T05:05:17;2.87;;;1.93;;
16127;SDS011;8168;49.036;7.690;2023-02-28T05:07:48;3.17;;;2.30;;
16127;SDS011;8168;49.036;7.690;2023-02-28T05:10:19;3.93;;;2.53;;
16127;SDS011;8168;49.036;7.690;2023-02-28T05:12:50;2.40;;;2.20;;
16127;SDS011;8168;49.036;7.690;2023-02-28T05:15:22;3.00;;;2.37;;
16127;SDS011;8168;49.036;7.690;2023-02-28T05:17:53;2.37;;;1.93;;
16127;SDS011;8168;49.036;7.690;2023-02-28T05:20:23;2.97;;;2.33;;
16127;SDS011;8168;49.036;7.690;2023-02-28T05:22:55;5.33;;;2.37;;
16127;SDS011;8168;49.036;7.690;2023-02-28T05:25:28;3.03;;;2.03;;
16127;SDS011;8168;49.036;7.690;2023-02-28T05:27:59;2.43;;;2.07;;
16127;SDS011;8168;49.036;7.690;2023-02-28T05:30:29;6.73;;;2.33;;
16127;SDS011;8168;49.036;7.690;2023-02-28T05:33:01;4.57;;;2.23;;
16127;SDS011;8168;49.036;7.690;2023-02-28T05:35:32;5.30;;;2.87;;
16127;SDS011;8168;49.036;7.690;2023-02-28T05:38:03;3.40;;;1.90;;
16127;SDS011;8168;49.036;7.690;2023-02-28T05:40:34;3.33;;;2.13;;
16127;SDS011;8168;49.036;7.690;2023-02-28T05:43:05;3.03;;;2.37;;
16127;SDS011;8168;49.036;7.690;2023-02-28T05:45:36;2.87;;;2.20;;
16127;SDS011;8168;49.036;7.690;2023-02-28T05:48:07;1.73;;;1.47;;
16127;SDS011;8168;49.036;7.690;2023-02-28T05:50:38;3.17;;;2.20;;
16127;SDS011;8168;49.036;7.690;2023-02-28T05:53:09;3.57;;;2.63;;
16127;SDS011;8168;49.036;7.690;2023-02-28T05:55:40;5.50;;;2.53;;
16127;SDS011;8168;49.036;7.690;2023-02-28T05:58:11;2.90;;;2.47;;
16127;SDS011;8168;49.036;7.690;2023-02-28T06:00:42;4.13;;;2.47;;
16127;SDS011;8168;49.036;7.690;2023-02-28T06:03:13;4.53;;;2.93;;
16127;SDS011;8168;49.036;7.690;2023-02-28T06:05:44;4.90;;;3.20;;
16127;SDS011;8168;49.036;7.690;2023-02-28T06:08:15;4.50;;;3.13;;
16127;SDS011;8168;49.036;7.690;2023-02-28T06:10:46;4.10;;;2.73;;
16127;SDS011;8168;49.036;7.690;2023-02-28T06:13:17;5.23;;;2.83;;
16127;SDS011;8168;49.036;7.690;2023-02-28T06:15:49;3.53;;;2.57;;
16127;SDS011;8168;49.036;7.690;2023-02-28T06:18:20;3.40;;;2.80;;
16127;SDS011;8168;49.036;7.690;2023-02-28T06:20:54;3.10;;;2.47;;
16127;SDS011;8168;49.036;7.690;2023-02-28T06:23:25;5.00;;;2.90;;
16127;SDS011;8168;49.036;7.690;2023-02-28T06:25:56;3.90;;;2.40;;
16127;SDS011;8168;49.036;7.690;2023-02-28T06:28:28;4.20;;;2.60;;
16127;SDS011;8168;49.036;7.690;2023-02-28T06:30:59;4.80;;;3.00;;
16127;SDS011;8168;49.036;7.690;2023-02-28T06:33:30;5.37;;;3.13;;
16127;SDS011;8168;49.036;7.690;2023-02-28T06:36:01;2.87;;;2.13;;
16127;SDS011;8168;49.036;7.690;2023-02-28T06:38:32;4.27;;;3.17;;
16127;SDS011;8168;49.036;7.690;2023-02-28T06:41:03;4.33;;;3.20;;
16127;SDS011;8168;49.036;7.690;2023-02-28T06:43:36;6.27;;;3.10;;
16127;SDS011;8168;49.036;7.690;2023-02-28T06:46:10;5.67;;;3.03;;
16127;SDS011;8168;49.036;7.690;2023-02-28T06:48:43;2.37;;;1.77;;
16127;SDS011;8168;49.036;7.690;2023-02-28T06:51:18;3.77;;;2.73;;
16127;SDS011;8168;49.036;7.690;2023-02-28T06:53:52;4.67;;;2.63;;
16127;SDS011;8168;49.036;7.690;2023-02-28T06:56:23;4.33;;;2.93;;
16127;SDS011;8168;49.036;7.690;2023-02-28T06:58:54;2.90;;;2.40;;
16127;SDS011;8168;49.036;7.690;2023-02-28T07:01:24;4.30;;;2.57;;
16127;SDS011;8168;49.036;7.690;2023-02-28T07:03:58;3.80;;;2.40;;
16127;SDS011;8168;49.036;7.690;2023-02-28T07:06:30;3.47;;;2.73;;
16127;SDS011;8168;49.036;7.690;2023-02-28T07:09:01;4.00;;;2.80;;
16127;SDS011;8168;49.036;7.690;2023-02-28T07:11:31;5.50;;;3.40;;
16127;SDS011;8168;49.036;7.690;2023-02-28T07:14:02;4.10;;;2.93;;
16127;SDS011;8168;49.036;7.690;2023-02-28T07:16:34;3.00;;;2.10;;
16127;SDS011;8168;49.036;7.690;2023-02-28T07:19:05;6.00;;;3.57;;
16127;SDS011;8168;49.036;7.690;2023-02-28T07:21:36;2.47;;;2.10;;
16127;SDS011;8168;49.036;7.690;2023-02-28T07:24:07;4.00;;;3.00;;
16127;SDS011;8168;49.036;7.690;2023-02-28T07:26:38;1.60;;;1.50;;
16127;SDS011;8168;49.036;7.690;2023-02-28T07:29:09;3.27;;;2.50;;
16127;SDS011;8168;49.036;7.690;2023-02-28T07:31:40;4.30;;;2.70;;
16127;SDS011;8168;49.036;7.690;2023-02-28T07:34:11;4.27;;;3.10;;
16127;SDS011;8168;49.036;7.690;2023-02-28T07:36:42;3.00;;;2.57;;
16127;SDS011;8168;49.036;7.690;2023-02-28T07:39:13;1.90;;;1.63;;
16127;SDS011;8168;49.036;7.690;2023-02-28T07:41:44;3.93;;;2.47;;
16127;SDS011;8168;49.036;7.690;2023-02-28T07:44:15;3.57;;;2.33;;
16127;SDS011;8168;49.036;7.690;2023-02-28T07:46:46;2.90;;;2.37;;
16127;SDS011;8168;49.036;7.690;2023-02-28T07:49:17;5.50;;;2.87;;
16127;SDS011;8168;49.036;7.690;2023-02-28T07:51:48;5.03;;;2.83;;
16127;SDS011;8168;49.036;7.690;2023-02-28T07:54:19;7.60;;;2.83;;
16127;SDS011;8168;49.036;7.690;2023-02-28T07:56:50;7.20;;;4.20;;
16127;SDS011;8168;49.036;7.690;2023-02-28T07:59:21;4.43;;;3.20;;
16127;SDS011;8168;49.036;7.690;2023-02-28T08:01:52;6.43;;;3.87;;
16127;SDS011;8168;49.036;7.690;2023-02-28T08:04:23;7.20;;;4.10;;
16127;SDS011;8168;49.036;7.690;2023-02-28T08:06:54;4.13;;;3.03;;
16127;SDS011;8168;49.036;7.690;2023-02-28T08:09:26;7.17;;;3.23;;
16127;SDS011;8168;49.036;7.690;2023-02-28T08:11:57;5.23;;;3.03;;
16127;SDS011;8168;49.036;7.690;2023-02-28T08:14:28;4.63;;;3.13;;
16127;SDS011;8168;49.036;7.690;2023-02-28T08:16:59;5.70;;;3.00;;
16127;SDS011;8168;49.036;7.690;2023-02-28T08:19:30;9.23;;;3.90;;
16127;SDS011;8168;49.036;7.690;2023-02-28T08:22:01;4.13;;;3.03;;
16127;SDS011;8168;49.036;7.690;2023-02-28T08:24:32;5.37;;;3.60;;
16127;SDS011;8168;49.036;7.690;2023-02-28T08:27:03;6.40;;;3.20;;
16127;SDS011;8168;49.036;7.690;2023-02-28T08:29:36;6.70;;;3.50;;
16127;SDS011;8168;49.036;7.690;2023-02-28T08:32:07;4.23;;;3.43;;
16127;SDS011;8168;49.036;7.690;2023-02-28T08:34:39;3.43;;;2.77;;
16127;SDS011;8168;49.036;7.690;2023-02-28T08:37:10;6.37;;;3.03;;
16127;SDS011;8168;49.036;7.690;2023-02-28T08:39:41;3.90;;;2.90;;
16127;SDS011;8168;49.036;7.690;2023-02-28T08:42:12;7.27;;;3.60;;
16127;SDS011;8168;49.036;7.690;2023-02-28T08:44:43;2.87;;;2.33;;
16127;SDS011;8168;49.036;7.690;2023-02-28T08:47:14;4.20;;;3.03;;
16127;SDS011;8168;49.036;7.690;2023-02-28T08:49:45;3.57;;;2.93;;
16127;SDS011;8168;49.036;7.690;2023-02-28T08:52:16;3.70;;;2.83;;
16127;SDS011;8168;49.036;7.690;2023-02-28T08:54:47;5.23;;;3.23;;
16127;SDS011;8168;49.036;7.690;2023-02-28T08:57:19;4.87;;;3.30;;
16127;SDS011;8168;49.036;7.690;2023-02-28T08:59:49;4.77;;;3.40;;
16127;SDS011;8168;49.036;7.690;2023-02-28T09:02:21;9.37;;;3.07;;
16127;SDS011;8168;49.036;7.690;2023-02-28T09:04:52;6.47;;;3.43;;
16127;SDS011;8168;49.036;7.690;2023-02-28T09:07:23;6.17;;;3.73;;
16127;SDS011;8168;49.036;7.690;2023-02-28T09:09:54;4.70;;;3.27;;
16127;SDS011;8168;49.036;7.690;2023-02-28T09:12:27;4.83;;;3.00;;
16127;SDS011;8168;49.036;7.690;2023-02-28T09:15:01;8.93;;;3.80;;
16127;SDS011;8168;49.036;7.690;2023-02-28T09:17:32;5.03;;;3.67;;
16127;SDS011;8168;49.036;7.690;2023-02-28T09:20:04;6.27;;;2.90;;
16127;SDS011;8168;49.036;7.690;2023-02-28T09:22:35;5.03;;;2.40;;
16127;SDS011;8168;49.036;7.690;2023-02-28T09:25:06;4.07;;;3.00;;
16127;SDS011;8168;49.036;7.690;2023-02-28T09:27:37;7.07;;;4.00;;
16127;SDS011;8168;49.036;7.690;2023-02-28T09:30:08;5.87;;;3.40;;
16127;SDS011;8168;49.036;7.690;2023-02-28T09:32:40;6.70;;;4.33;;
16127;SDS011;8168;49.036;7.690;2023-02-28T09:35:11;5.40;;;3.40;;
16127;SDS011;8168;49.036;7.690;2023-02-28T09:37:46;4.17;;;3.13;;
16127;SDS011;8168;49.036;7.690;2023-02-28T09:40:21;6.30;;;3.97;;
16127;SDS011;8168;49.036;7.690;2023-02-28T09:42:55;4.83;;;4.17;;
16127;SDS011;8168;49.036;7.690;2023-02-28T09:48:01;3.70;;;2.80;;
16127;SDS011;8168;49.036;7.690;2023-02-28T09:50:53;3.73;;;3.27;;
16127;SDS011;8168;49.036;7.690;2023-02-28T09:53:31;5.00;;;3.30;;
16127;SDS011;8168;49.036;7.690;2023-02-28T09:56:11;7.90;;;4.97;;
16127;SDS011;8168;49.036;7.690;2023-02-28T10:05:20;5.27;;;3.53;;
16127;SDS011;8168;49.036;7.690;2023-02-28T10:08:21;6.10;;;4.30;;
16127;SDS011;8168;49.036;7.690;2023-02-28T10:11:16;4.03;;;3.07;;
16127;SDS011;8168;49.036;7.690;2023-02-28T10:13:52;4.57;;;3.60;;
16127;SDS011;8168;49.036;7.690;2023-02-28T10:16:34;4.97;;;3.67;;
16127;SDS011;8168;49.036;7.690;2023-02-28T10:19:17;6.23;;;3.50;;
16127;SDS011;8168;49.036;7.690;2023-02-28T10:22:12;5.47;;;4.17;;
16127;SDS011;8168;49.036;7.690;2023-02-28T10:24:57;5.83;;;4.00;;
16127;SDS011;8168;49.036;7.690;2023-02-28T10:27:35;5.73;;;4.50;;
16127;SDS011;8168;49.036;7.690;2023-02-28T10:30:09;8.20;;;5.37;;
16127;SDS011;8168;49.036;7.690;2023-02-28T10:32:42;3.37;;;2.63;;
16127;SDS011;8168;49.036;7.690;2023-02-28T10:35:23;3.83;;;3.23;;
16127;SDS011;8168;49.036;7.690;2023-02-28T10:37:57;7.13;;;4.57;;
16127;SDS011;8168;49.036;7.690;2023-02-28T10:40:34;6.07;;;4.10;;
16127;SDS011;8168;49.036;7.690;2023-02-28T10:43:16;5.73;;;3.70;;
16127;SDS011;8168;49.036;7.690;2023-02-28T10:45:56;6.40;;;3.50;;
16127;SDS011;8168;49.036;7.690;2023-02-28T10:51:12;5.50;;;4.00;;
16127;SDS011;8168;49.036;7.690;2023-02-28T10:53:48;5.77;;;4.13;;
16127;SDS011;8168;49.036;7.690;2023-02-28T10:56:21;6.40;;;3.70;;
16127;SDS011;8168;49.036;7.690;2023-02-28T11:04:18;5.80;;;4.20;;
16127;SDS011;8168;49.036;7.690;2023-02-28T11:06:59;6.37;;;4.30;;
16127;SDS011;8168;49.036;7.690;2023-02-28T11:09:34;6.87;;;4.70;;
16127;SDS011;8168;49.036;7.690;2023-02-28T11:12:19;6.03;;;5.07;;
16127;SDS011;8168;49.036;7.690;2023-02-28T11:15:14;7.43;;;4.13;;
16127;SDS011;8168;49.036;7.690;2023-02-28T11:18:15;6.70;;;4.97;;
16127;SDS011;8168;49.036;7.690;2023-02-28T11:20:49;7.10;;;4.47;;
16127;SDS011;8168;49.036;7.690;2023-02-28T11:23:23;6.40;;;4.70;;
16127;SDS011;8168;49.036;7.690;2023-02-28T11:25:59;6.63;;;4.30;;
16127;SDS011;8168;49.036;7.690;2023-02-28T11:28:35;6.80;;;3.50;;
16127;SDS011;8168;49.036;7.690;2023-02-28T11:33:54;7.00;;;4.40;;
16127;SDS011;8168;49.036;7.690;2023-02-28T11:36:30;6.80;;;3.53;;
16127;SDS011;8168;49.036;7.690;2023-02-28T11:39:07;4.03;;;3.63;;
16127;SDS011;8168;49.036;7.690;2023-02-28T11:41:55;5.13;;;3.50;;
16127;SDS011;8168;49.036;7.690;2023-02-28T11:44:35;6.20;;;3.37;;
16127;SDS011;8168;49.036;7.690;2023-02-28T11:53:00;5.70;;;4.00;;
16127;SDS011;8168;49.036;7.690;2023-02-28T11:55:36;7.13;;;4.03;;
16127;SDS011;8168;49.036;7.690;2023-02-28T12:01:13;3.43;;;3.13;;
16127;SDS011;8168;49.036;7.690;2023-02-28T12:04:21;3.07;;;2.57;;
16127;SDS011;8168;49.036;7.690;2023-02-28T12:18:48;9.00;;;5.60;;
16127;SDS011;8168;49.036;7.690;2023-02-28T12:21:34;6.23;;;4.47;;
16127;SDS011;8168;49.036;7.690;2023-02-28T12:27:37;7.57;;;4.77;;
16127;SDS011;8168;49.036;7.690;2023-02-28T12:35:34;6.53;;;4.87;;
16127;SDS011;8168;49.036;7.690;2023-02-28T12:43:20;7.37;;;5.07;;
16127;SDS011;8168;49.036;7.690;2023-02-28T12:45:59;2.53;;;1.93;;
16127;SDS011;8168;49.036;7.690;2023-02-28T12:48:42;7.37;;;4.87;;
16127;SDS011;8168;49.036;7.690;2023-02-28T12:51:16;8.73;;;4.00;;
16127;SDS011;8168;49.036;7.690;2023-02-28T12:59:22;8.30;;;5.87;;
16127;SDS011;8168;49.036;7.690;2023-02-28T13:10:44;6.80;;;4.40;;
16127;SDS011;8168;49.036;7.690;2023-02-28T13:13:18;7.40;;;5.10;;
16127;SDS011;8168;49.036;7.690;2023-02-28T13:16:05;7.60;;;5.57;;
16127;SDS011;8168;49.036;7.690;2023-02-28T13:18:44;7.23;;;4.80;;
16127;SDS011;8168;49.036;7.690;2023-02-28T13:21:28;5.90;;;4.63;;
16127;SDS011;8168;49.036;7.690;2023-02-28T13:24:03;5.87;;;4.33;;
16127;SDS011;8168;49.036;7.690;2023-02-28T13:34:46;7.70;;;5.50;;
16127;SDS011;8168;49.036;7.690;2023-02-28T13:37:43;7.43;;;5.77;;
16127;SDS011;8168;49.036;7.690;2023-02-28T13:40:31;7.90;;;6.00;;
16127;SDS011;8168;49.036;7.690;2023-02-28T13:43:07;7.60;;;3.67;;
16127;SDS011;8168;49.036;7.690;2023-02-28T13:45:38;6.70;;;4.83;;
16127;SDS011;8168;49.036;7.690;2023-02-28T13:48:29;8.50;;;5.30;;
16127;SDS011;8168;49.036;7.690;2023-02-28T13:50:59;8.53;;;5.27;;
16127;SDS011;8168;49.036;7.690;2023-02-28T13:54:24;6.40;;;5.00;;
16127;SDS011;8168;49.036;7.690;2023-02-28T14:02:45;6.50;;;4.50;;
16127;SDS011;8168;49.036;7.690;2023-02-28T14:05:36;6.43;;;4.97;;
16127;SDS011;8168;49.036;7.690;2023-02-28T14:08:25;6.30;;;3.43;;
16127;SDS011;8168;49.036;7.690;2023-02-28T14:11:06;7.37;;;5.50;;
16127;SDS011;8168;49.036;7.690;2023-02-28T14:13:53;8.40;;;5.60;;
16127;SDS011;8168;49.036;7.690;2023-02-28T14:16:25;7.40;;;5.27;;
16127;SDS011;8168;49.036;7.690;2023-02-28T14:33:46;7.53;;;5.27;;
16127;SDS011;8168;49.036;7.690;2023-02-28T14:36:38;5.77;;;4.40;;
16127;SDS011;8168;49.036;7.690;2023-02-28T14:39:24;8.20;;;5.10;;
16127;SDS011;8168;49.036;7.690;2023-02-28T14:41:55;7.97;;;4.17;;
16127;SDS011;8168;49.036;7.690;2023-02-28T14:44:33;8.97;;;5.60;;
16127;SDS011;8168;49.036;7.690;2023-02-28T14:47:11;9.07;;;6.00;;
16127;SDS011;8168;49.036;7.690;2023-02-28T14:49:45;8.03;;;5.87;;
16127;SDS011;8168;49.036;7.690;2023-02-28T14:52:22;4.20;;;3.57;;
16127;SDS011;8168;49.036;7.690;2023-02-28T14:57:31;4.40;;;3.37;;
16127;SDS011;8168;49.036;7.690;2023-02-28T15:00:09;7.47;;;5.37;;
16127;SDS011;8168;49.036;7.690;2023-02-28T15:02:54;7.00;;;4.10;;
16127;SDS011;8168;49.036;7.690;2023-02-28T15:05:30;8.57;;;6.60;;
16127;SDS011;8168;49.036;7.690;2023-02-28T15:10:35;7.43;;;5.27;;
16127;SDS011;8168;49.036;7.690;2023-02-28T15:13:07;9.00;;;5.47;;
16127;SDS011;8168;49.036;7.690;2023-02-28T15:21:03;10.47;;;6.80;;
16127;SDS011;8168;49.036;7.690;2023-02-28T15:23:37;7.83;;;5.37;;
16127;SDS011;8168;49.036;7.690;2023-02-28T15:26:15;8.87;;;6.23;;
16127;SDS011;8168;49.036;7.690;2023-02-28T15:28:50;8.30;;;6.00;;
16127;SDS011;8168;49.036;7.690;2023-02-28T15:31:29;8.40;;;6.13;;
16127;SDS011;8168;49.036;7.690;2023-02-28T15:34:03;4.10;;;2.97;;
16127;SDS011;8168;49.036;7.690;2023-02-28T15:36:35;10.63;;;6.73;;
16127;SDS011;8168;49.036;7.690;2023-02-28T15:39:20;7.37;;;5.27;;
16127;SDS011;8168;49.036;7.690;2023-02-28T15:42:10;8.13;;;6.13;;
16127;SDS011;8168;49.036;7.690;2023-02-28T15:44:42;9.77;;;6.63;;
16127;SDS011;8168;49.036;7.690;2023-02-28T15:47:17;5.33;;;4.50;;
16127;SDS011;8168;49.036;7.690;2023-02-28T15:49:52;8.87;;;5.87;;
16127;SDS011;8168;49.036;7.690;2023-02-28T15:52:28;13.77;;;5.80;;
16127;SDS011;8168;49.036;7.690;2023-02-28T15:55:08;11.20;;;8.27;;
16127;SDS011;8168;49.036;7.690;2023-02-28T15:57:42;7.90;;;4.90;;
16127;SDS011;8168;49.036;7.690;2023-02-28T16:00:18;9.77;;;6.33;;
16127;SDS011;8168;49.036;7.690;2023-02-28T16:02:51;10.20;;;6.20;;
16127;SDS011;8168;49.036;7.690;2023-02-28T16:05:23;9.43;;;6.20;;
16127;SDS011;8168;49.036;7.690;2023-02-28T16:08:06;8.53;;;6.70;;
16127;SDS011;8168;49.036;7.690;2023-02-28T16:10:43;11.73;;;6.20;;
16127;SDS011;8168;49.036;7.690;2023-02-28T16:13:14;9.17;;;6.23;;
16127;SDS011;8168;49.036;7.690;2023-02-28T16:15:45;7.63;;;5.30;;
16127;SDS011;8168;49.036;7.690;2023-02-28T16:18:16;11.20;;;5.63;;
16127;SDS011;8168;49.036;7.690;2023-02-28T16:20:47;9.90;;;6.40;;
16127;SDS011;8168;49.036;7.690;2023-02-28T16:23:17;7.80;;;5.97;;
16127;SDS011;8168;49.036;7.690;2023-02-28T16:25:48;5.60;;;4.63;;
16127;SDS011;8168;49.036;7.690;2023-02-28T16:28:19;10.57;;;6.70;;
16127;SDS011;8168;49.036;7.690;2023-02-28T16:30:55;8.57;;;5.40;;
16127;SDS011;8168;49.036;7.690;2023-02-28T16:33:25;10.17;;;5.97;;
16127;SDS011;8168;49.036;7.690;2023-02-28T16:35:56;10.33;;;6.80;;
16127;SDS011;8168;49.036;7.690;2023-02-28T16:38:27;9.70;;;5.93;;
16127;SDS011;8168;49.036;7.690;2023-02-28T16:40:59;8.87;;;6.17;;
16127;SDS011;8168;49.036;7.690;2023-02-28T16:43:31;10.30;;;7.20;;
16127;SDS011;8168;49.036;7.690;2023-02-28T16:46:02;7.10;;;5.90;;
16127;SDS011;8168;49.036;7.690;2023-02-28T16:48:33;8.17;;;5.47;;
16127;SDS011;8168;49.036;7.690;2023-02-28T16:51:04;8.57;;;6.13;;
16127;SDS011;8168;49.036;7.690;2023-02-28T16:53:35;14.77;;;9.80;;
16127;SDS011;8168;49.036;7.690;2023-02-28T16:56:06;7.50;;;6.23;;
16127;SDS011;8168;49.036;7.690;2023-02-28T16:58:40;10.53;;;6.57;;
16127;SDS011;8168;49.036;7.690;2023-02-28T17:01:11;14.67;;;7.57;;
16127;SDS011;8168;49.036;7.690;2023-02-28T17:03:42;12.87;;;5.97;;
16127;SDS011;8168;49.036;7.690;2023-02-28T17:08:51;5.87;;;4.53;;
16127;SDS011;8168;49.036;7.690;2023-02-28T17:11:22;10.40;;;6.23;;
16127;SDS011;8168;49.036;7.690;2023-02-28T17:13:53;10.67;;;5.70;;
16127;SDS011;8168;49.036;7.690;2023-02-28T17:16:26;7.67;;;5.30;;
16127;SDS011;8168;49.036;7.690;2023-02-28T17:19:02;9.93;;;6.03;;
16127;SDS011;8168;49.036;7.690;2023-02-28T17:21:34;10.57;;;6.80;;
16127;SDS011;8168;49.036;7.690;2023-02-28T17:24:04;27.87;;;14.37;;
16127;SDS011;8168;49.036;7.690;2023-02-28T17:26:35;9.40;;;6.77;;
16127;SDS011;8168;49.036;7.690;2023-02-28T17:29:11;11.73;;;8.33;;
16127;SDS011;8168;49.036;7.690;2023-02-28T17:31:47;11.30;;;7.83;;
16127;SDS011;8168;49.036;7.690;2023-02-28T17:34:18;10.40;;;6.70;;
16127;SDS011;8168;49.036;7.690;2023-02-28T17:36:50;10.13;;;6.90;;
16127;SDS011;8168;49.036;7.690;2023-02-28T17:39:22;17.03;;;11.03;;
16127;SDS011;8168;49.036;7.690;2023-02-28T17:41:56;9.67;;;6.87;;
16127;SDS011;8168;49.036;7.690;2023-02-28T17:44:26;11.67;;;7.20;;
16127;SDS011;8168;49.036;7.690;2023-02-28T17:46:58;13.20;;;7.77;;
16127;SDS011;8168;49.036;7.690;2023-02-28T17:49:29;8.20;;;5.63;;
16127;SDS011;8168;49.036;7.690;2023-02-28T17:52:00;9.90;;;5.53;;
16127;SDS011;8168;49.036;7.690;2023-02-28T17:54:31;8.37;;;5.67;;
16127;SDS011;8168;49.036;7.690;2023-02-28T17:57:02;8.33;;;5.93;;
16127;SDS011;8168;49.036;7.690;2023-02-28T17:59:32;7.03;;;4.90;;
16127;SDS011;8168;49.036;7.690;2023-02-28T18:02:03;7.60;;;5.20;;
16127;SDS011;8168;49.036;7.690;2023-02-28T18:04:34;8.40;;;6.10;;
16127;SDS011;8168;49.036;7.690;2023-02-28T18:07:05;9.70;;;6.83;;
16127;SDS011;8168;49.036;7.690;2023-02-28T18:09:36;10.10;;;6.33;;
16127;SDS011;8168;49.036;7.690;2023-02-28T18:12:07;9.60;;;6.27;;
16127;SDS011;8168;49.036;7.690;2023-02-28T18:14:38;9.30;;;6.50;;
16127;SDS011;8168;49.036;7.690;2023-02-28T18:17:09;11.30;;;6.90;;